Latest Weather Observations for Portland Airport

IDV60801

Issued at 9:31 pm EST Tuesday 31 May 2016 (issued every 30 minutes, with the page automatically refreshed every 10 minutes)

About weather observations | Map of weather stations | Latest weather observations for VIC | Other Formats
Station Details ID: 090171 Name: CASHMORE AIRPORT Lat: -38.31 Lon: 141.47 Height: 80.9 m
Data from the previous 72 hours. | See also: Recent months at Portland Airport
Date/Time
EST
Temp
°C
App
Temp
°C
Dew
Point
Rel
Hum
%
Delta-T
°C
Wind Press
QNH
hPa
Press
MSL
hPa
Rain
since 9 am
mm
Dir
 
Spd
km/h
Gust
km/h
Spd
kts
Gust
kts
31/09:30pm 7.8 5.6 5.1 83 1.2 NE 6 9 3 5 1027.5 1027.5 0.0
31/09:00pm 8.8 6.9 6.8 87 0.9 ENE 6 9 3 5 1027.4 1027.4 0.0
31/08:30pm 8.3 6.3 6.4 88 0.9 E 6 7 3 4 1027.4 1027.4 0.0
31/08:00pm 7.8 6.8 5.8 87 0.9 CALM 0 0 0 0 1027.3 1027.3 0.0
31/07:30pm 8.9 8.1 6.5 85 1.1 CALM 0 0 0 0 1027.2 1027.2 0.0
31/07:00pm 10.1 9.5 7.2 82 1.4 CALM 0 0 0 0 1027.1 1027.1 0.0
31/06:30pm 11.0 9.3 7.5 79 1.7 E 6 7 3 4 1027.0 1027.0 0.0
31/06:00pm 11.7 9.7 7.2 74 2.2 E 7 9 4 5 1026.8 1026.8 0.0
31/05:30pm 12.3 10.5 7.0 70 2.6 NE 6 9 3 5 1026.6 1026.6 0.0
31/05:00pm 12.8 11.1 7.5 70 2.6 ENE 6 7 3 4 1026.5 1026.5 0.0
31/04:30pm 13.4 11.7 7.4 67 2.9 ENE 6 9 3 5 1026.5 1026.5 0.0
31/04:00pm 13.7 11.3 7.2 65 3.2 NE 9 13 5 7 1026.4 1026.4 0.0
31/03:30pm 13.6 11.5 6.7 63 3.3 NE 7 13 4 7 1026.3 1026.3 0.0
31/03:00pm 14.0 11.5 6.6 61 3.6 NE 9 17 5 9 1026.2 1026.2 0.0
31/02:30pm 14.2 10.6 6.6 60 3.7 NE 15 19 8 10 1026.3 1026.3 0.0
31/02:00pm 14.1 10.8 6.5 60 3.7 NE 13 20 7 11 1026.4 1026.4 0.0
31/01:30pm 13.6 10.3 6.5 62 3.4 NNE 13 20 7 11 1026.5 1026.5 0.0
31/01:00pm 13.1 8.9 5.8 61 3.4 NNE 17 20 9 11 1026.7 1026.7 0.0
31/12:30pm 13.4 8.8 5.8 60 3.6 NNE 19 26 10 14 1026.8 1026.8 0.0
31/12:00pm 12.7 8.5 5.6 62 3.3 NNE 17 22 9 12 1027.1 1027.1 0.0
31/11:30am 13.3 8.7 6.4 63 3.3 NNE 20 28 11 15 1027.6 1027.6 0.0
31/11:00am 11.2 8.3 6.3 72 2.3 NE 11 17 6 9 1028.0 1028.0 0.0
31/10:30am 10.2 6.2 4.8 69 2.4 NNE 15 19 8 10 1028.3 1028.3 0.0
31/10:00am 10.0 6.9 5.4 73 2.1 NE 11 15 6 8 1028.2 1028.2 0.0
31/09:30am 8.7 6.0 5.6 81 1.4 ENE 9 15 5 8 1028.1 1028.1 0.0
31/09:00am 6.9 3.9 4.2 83 1.2 ENE 9 15 5 8 1028.1 1028.1 0.0
31/08:30am 6.2 3.2 3.9 85 1.0 ENE 9 13 5 7 1027.8 1027.8 0.0
31/08:00am 5.3 2.5 3.2 86 0.9 ENE 7 9 4 5 1027.6 1027.6 0.0
31/07:30am 5.2 2.0 3.1 86 0.9 ENE 9 15 5 8 1027.3 1027.3 0.0
31/07:00am 5.1 1.5 3.0 86 0.9 ENE 11 15 6 8 1027.0 1027.0 0.0
31/06:30am 5.5 2.3 3.0 84 1.0 ENE 9 13 5 7 1026.8 1026.8 0.0
31/06:00am 5.9 2.3 3.2 83 1.1 ENE 11 15 6 8 1026.6 1026.6 0.0
31/05:30am 6.3 2.8 3.3 81 1.3 ENE 11 17 6 9 1026.5 1026.5 0.0
31/05:00am 6.5 3.4 3.7 82 1.2 ENE 9 15 5 8 1026.5 1026.5 0.0
31/04:30am 6.2 2.7 3.4 82 1.2 ENE 11 15 6 8 1026.4 1026.4 0.0
31/04:00am 6.4 2.9 3.4 81 1.3 ENE 11 15 6 8 1026.4 1026.4 0.0
31/03:30am 6.6 3.2 3.8 82 1.2 ENE 11 15 6 8 1026.4 1026.4 0.0
31/03:00am 6.7 4.0 3.9 82 1.2 ENE 7 11 4 6 1026.5 1026.5 0.0
31/02:30am 6.4 3.3 3.6 82 1.2 ENE 9 13 5 7 1026.4 1026.4 0.0
31/02:00am 6.8 4.0 3.4 79 1.4 ENE 7 11 4 6 1026.5 1026.5 0.0
31/01:30am 7.2 3.7 3.6 78 1.5 NE 11 15 6 8 1026.6 1026.6 0.0
31/01:00am 7.2 4.1 3.6 78 1.5 NE 9 15 5 8 1026.5 1026.5 0.0
31/12:30am 7.3 4.2 3.7 78 1.5 NE 9 13 5 7 1026.6 1026.6 0.0
31/12:00am 7.4 3.5 3.5 76 1.7 NNE 13 19 7 10 1026.5 1026.5 0.0
 
Date/Time
EST
Temp
°C
App
Temp
°C
Dew
Point
Rel
Hum
%
Delta-T
°C
Wind Press
QNH
hPa
Press
MSL
hPa
Rain
since 9 am
mm
Dir
 
Spd
km/h
Gust
km/h
Spd
kts
Gust
kts
30/11:30pm 7.5 4.0 3.6 76 1.7 NE 11 15 6 8 1026.4 1026.4 0.0
30/11:00pm 7.8 4.3 3.7 75 1.8 NE 11 17 6 9 1026.4 1026.4 0.0
30/10:30pm 8.1 4.7 3.9 75 1.8 NE 11 17 6 9 1026.4 1026.4 0.0
30/10:00pm 8.2 4.4 3.9 74 1.9 NE 13 20 7 11 1026.4 1026.4 0.0
30/09:30pm 8.2 4.4 4.0 75 1.8 NE 13 19 7 10 1026.5 1026.5 0.0
30/09:00pm 8.4 5.0 4.0 74 1.9 NE 11 17 6 9 1026.4 1026.4 0.0
30/08:30pm 8.9 5.5 4.1 72 2.1 NE 11 19 6 10 1026.1 1026.1 0.0
30/08:00pm 8.7 5.7 4.3 74 1.9 NE 9 15 5 8 1026.0 1026.0 0.0
30/07:30pm 9.0 6.1 4.4 73 2.0 ENE 9 19 5 10 1025.8 1025.8 0.0
30/07:00pm 9.0 5.4 5.0 76 1.8 ENE 13 19 7 10 1025.5 1025.5 0.0
30/06:30pm 8.8 5.5 4.8 76 1.8 ENE 11 17 6 9 1025.2 1025.2 0.0
30/06:00pm 9.3 6.0 4.7 73 2.0 ENE 11 15 6 8 1024.9 1025.0 0.0
30/05:30pm 10.1 7.2 4.7 69 2.4 ENE 9 17 5 9 1024.6 1024.7 0.0
30/05:00pm 10.9 8.0 4.8 66 2.8 ENE 9 15 5 8 1024.2 1024.3 0.0
30/04:30pm 11.8 8.5 4.8 62 3.2 ENE 11 17 6 9 1023.9 1024.0 0.0
30/04:00pm 13.1 10.0 5.5 60 3.6 NE 11 19 6 10 1023.7 1023.8 0.0
30/03:30pm 13.3 9.7 5.2 58 3.8 NE 13 22 7 12 1023.5 1023.6 0.0
30/03:00pm 13.3 8.9 4.7 56 4.0 NE 17 24 9 13 1023.6 1023.7 0.0
30/02:30pm 13.4 9.8 4.8 56 4.0 NE 13 20 7 11 1023.5 1023.6 0.0
30/02:00pm 13.4 9.8 4.8 56 4.0 NE 13 24 7 13 1023.5 1023.6 0.0
30/01:30pm 12.8 7.9 4.0 55 4.0 NNE 19 28 10 15 1023.7 1023.8 0.0
30/01:00pm 13.0 8.2 4.4 56 3.9 NE 19 28 10 15 1024.0 1024.1 0.0
30/12:30pm 12.0 7.9 4.5 60 3.4 NE 15 22 8 12 1024.3 1024.4 0.0
30/12:00pm 11.8 6.9 4.3 60 3.4 NNE 19 28 10 15 1024.6 1024.7 0.0
30/11:30am 10.9 7.3 5.2 68 2.6 NNE 13 20 7 11 1024.9 1025.0 0.0
30/11:00am 8.5 4.1 2.9 68 2.4 NNE 15 20 8 11 1025.3 1025.3 0.0
30/10:30am 9.3 5.8 3.7 68 2.4 NNE 11 17 6 9 1025.4 1025.4 0.0
30/10:00am 7.7 4.6 3.6 75 1.7 NNE 9 13 5 7 1025.4 1025.4 0.0
30/09:30am 5.4 2.1 2.6 82 1.1 NE 9 11 5 6 1025.3 1025.3 0.0
30/09:00am 4.0 1.1 2.5 90 0.6 NE 7 9 4 5 1025.0 1025.1 0.0
30/08:30am 2.0 0.1 0.8 92 0.5 CALM 0 0 0 0 1024.8 1024.9 0.0
30/08:00am 1.0 -1.4 -0.3 91 0.5 NE 2 6 1 3 1024.6 1024.7 0.0
30/07:30am 1.0 -2.2 -0.3 91 0.5 NE 6 7 3 4 1024.3 1024.4 0.0
30/07:00am 2.0 -1.0 0.7 91 0.5 NE 6 11 3 6 1024.2 1024.3 0.0
30/06:30am 0.7 -1.4 -0.9 89 0.6 CALM 0 0 0 0 1023.9 1024.0 0.0
30/06:00am 1.3 -0.8 -0.5 88 0.6 CALM 0 0 0 0 1023.7 1023.8 0.0
30/05:30am 2.3 -0.8 0.4 87 0.7 NE 6 7 3 4 1023.4 1023.5 0.0
30/05:00am 2.8 -0.4 0.7 86 0.8 NE 7 9 4 5 1023.2 1023.3 0.0
30/04:30am 2.8 -0.5 0.4 84 0.9 NE 7 9 4 5 1023.0 1023.1 0.0
30/04:00am 3.6 0.5 1.2 84 0.9 NE 7 9 4 5 1023.0 1023.1 0.0
30/03:30am 3.5 0.4 1.4 86 0.8 ENE 7 11 4 6 1023.0 1023.1 0.0
30/03:00am 2.9 -0.1 0.6 85 0.9 NE 6 9 3 5 1023.1 1023.2 0.0
30/02:30am 4.1 1.0 1.1 81 1.2 NE 7 9 4 5 1023.1 1023.2 0.0
30/02:00am 4.5 1.5 1.7 82 1.1 NE 7 9 4 5 1023.0 1023.1 0.0
30/01:30am 4.2 1.1 1.1 80 1.2 NE 7 11 4 6 1022.9 1023.0 0.0
30/01:00am 5.2 2.2 1.7 78 1.4 NE 7 9 4 5 1022.9 1023.0 0.0
30/12:30am 5.2 2.2 1.9 79 1.3 NE 7 11 4 6 1022.8 1022.9 0.0
30/12:00am 5.4 2.4 1.9 78 1.4 NE 7 9 4 5 1022.9 1023.0 0.0
 
Date/Time
EST
Temp
°C
App
Temp
°C
Dew
Point
Rel
Hum
%
Delta-T
°C
Wind Press
QNH
hPa
Press
MSL
hPa
Rain
since 9 am
mm
Dir
 
Spd
km/h
Gust
km/h
Spd
kts
Gust
kts
29/11:30pm 5.2 2.2 1.1 75 1.6 NE 6 9 3 5 1023.0 1023.1 0.0
29/11:00pm 6.6 3.6 1.7 71 2.0 ENE 7 11 4 6 1023.0 1023.1 0.0
29/10:30pm 7.4 4.0 2.1 69 2.2 NE 9 17 5 9 1023.0 1023.1 0.0
29/10:00pm 8.1 4.4 2.6 68 2.3 NNE 11 15 6 8 1023.0 1023.1 0.0
29/09:30pm 8.3 5.5 3.4 71 2.1 NNE 7 13 4 7 1023.0 1023.1 0.0
29/09:00pm 8.4 5.2 3.3 70 2.2 NNE 9 15 5 8 1022.9 1023.0 0.0
29/08:30pm 8.5 4.9 3.1 69 2.3 NNE 11 17 6 9 1022.8 1022.9 0.0
29/08:00pm 8.6 5.0 3.0 68 2.4 NNE 11 17 6 9 1022.6 1022.7 0.0
29/07:30pm 8.6 5.4 3.2 69 2.3 NE 9 13 5 7 1022.1 1022.2 0.0
29/07:00pm 8.5 5.7 3.1 69 2.3 NE 7 13 4 7 1021.9 1022.0 0.0
29/06:30pm 8.4 5.2 3.3 70 2.2 NE 9 13 5 7 1021.7 1021.8 0.0
29/06:00pm 8.0 4.8 3.3 72 2.0 NE 9 13 5 7 1021.4 1021.5 0.0
29/05:30pm 7.3 4.1 2.8 73 1.9 NE 9 11 5 6 1021.3 1021.4 0.0
29/05:00pm 8.7 5.1 3.1 68 2.4 NNE 11 17 6 9 1021.2 1021.3 0.0
29/04:30pm 9.6 5.4 3.6 66 2.6 NNE 15 19 8 10 1021.2 1021.3 0.0
29/04:00pm 10.2 6.0 3.9 65 2.8 NNE 15 22 8 12 1020.9 1021.0 0.0
29/03:30pm 10.8 6.7 4.3 64 2.9 NNE 15 20 8 11 1020.7 1020.8 0.0
29/03:00pm 11.2 7.5 4.2 62 3.1 NNE 13 19 7 10 1020.7 1020.8 0.0
29/02:30pm 11.4 8.1 4.6 63 3.1 N 11 17 6 9 1020.7 1020.8 0.0
29/02:00pm 11.2 7.9 4.7 64 2.9 N 11 19 6 10 1020.6 1020.7 0.0
29/01:30pm 11.0 7.2 4.0 62 3.1 N 13 15 7 8 1020.6 1020.7 0.0
29/01:00pm 10.8 6.8 4.9 67 2.7 NNE 15 19 8 10 1020.8 1020.9 0.0
29/12:30pm 10.6 6.5 4.5 66 2.7 N 15 20 8 11 1020.9 1021.0 0.0
29/12:00pm 10.5 7.2 4.6 67 2.6 N 11 19 6 10 1021.2 1021.3 0.0
29/11:30am 10.7 7.5 5.3 69 2.5 N 11 17 6 9 1021.5 1021.6 0.0
29/11:00am 10.5 6.9 4.9 68 2.5 NNW 13 17 7 9 1021.6 1021.7 0.0
29/10:30am 10.2 7.0 5.0 70 2.4 N 11 17 6 9 1021.6 1021.7 0.0
29/10:00am 10.2 7.4 5.2 71 2.3 NNW 9 15 5 8 1021.3 1021.4 0.0
29/09:30am 9.8 6.6 5.0 72 2.2 NNW 11 15 6 8 1021.3 1021.4 0.0
29/09:00am 9.8 7.3 4.8 71 2.2 NW 7 9 4 5 1021.0 1021.1 0.0
29/08:30am 9.5 6.5 4.3 70 2.3 NNW 9 13 5 7 1020.7 1020.8 0.0
29/08:00am 9.0 6.4 4.2 72 2.1 WNW 7 13 4 7 1020.5 1020.6 0.0
29/07:30am 8.9 5.9 4.3 73 2.0 WNW 9 11 5 6 1020.3 1020.3 0.0
29/07:00am 9.0 6.1 4.4 73 2.0 W 9 11 5 6 1020.0 1020.0 0.0
29/06:30am 9.1 6.1 4.1 71 2.2 WNW 9 11 5 6 1019.8 1019.8 0.0
29/06:00am 8.7 5.8 4.5 75 1.9 WNW 9 11 5 6 1019.6 1019.6 0.0
29/05:30am 8.8 6.5 4.8 76 1.8 WNW 6 9 3 5 1019.3 1019.3 0.0
29/05:00am 9.0 7.4 4.6 74 2.0 ESE 2 7 1 4 1019.2 1019.2 0.0
29/04:30am 9.1 7.5 4.5 73 2.0 ESE 2 7 1 4 1019.2 1019.2 0.0
29/04:00am 9.0 7.3 4.0 71 2.2 SSE 2 7 1 4 1019.2 1019.2 0.0
29/03:30am 9.4 6.4 4.2 70 2.3 WSW 9 13 5 7 1019.3 1019.3 0.0
29/03:00am 9.4 6.9 4.0 69 2.4 SSW 6 7 3 4 1019.3 1019.3 0.0
29/02:30am 9.8 6.7 3.8 66 2.6 SSW 9 13 5 7 1019.2 1019.2 0.0
29/02:00am 9.4 6.5 4.4 71 2.2 SW 9 15 5 8 1019.1 1019.1 0.0
29/01:30am 9.5 6.9 4.3 70 2.3 SW 7 9 4 5 1019.0 1019.0 0.0
29/01:00am 9.6 6.6 4.0 68 2.5 WSW 9 9 5 5 1019.1 1019.1 0.0
29/12:30am 9.6 6.3 4.6 71 2.2 SW 11 17 6 9 1019.1 1019.1 0.0
29/12:00am 9.5 7.2 4.9 73 2.1 WSW 6 7 3 4 1019.0 1019.0 0.0
 
Date/Time
EST
Temp
°C
App
Temp
°C
Dew
Point
Rel
Hum
%
Delta-T
°C
Wind Press
QNH
hPa
Press
MSL
hPa
Rain
since 9 am
mm
Dir
 
Spd
km/h
Gust
km/h
Spd
kts
Gust
kts
28/11:30pm 9.7 6.4 4.5 70 2.3 SW 11 17 6 9 1018.9 1018.9 0.0
28/11:00pm 10.1 6.8 4.3 67 2.6 SSW 11 15 6 8 1018.9 1018.9 0.0
28/10:30pm 9.8 7.4 4.4 69 2.4 SSW 6 11 3 6 1018.9 1018.9 0.0
28/10:00pm 9.8 7.2 4.2 68 2.5 SSW 7 13 4 7 1018.8 1018.8 0.0

Other Formats:

Comma delimited format used in spreadsheet applications
http://www.bom.gov.au/fwo/IDV60801/IDV60801.94828.axf

JavaScript Object Notation format (JSON) in row-major order
http://www.bom.gov.au/fwo/IDV60801/IDV60801.94828.json